Istanbul, Turkey

2:46 PM +03 on December 05, 2016 (GMT +0300)
Ataturk | | Change Station

Elev 121 ft 40.98 °N, 28.81 °E | Updated 26 minutes ago

Scattered Clouds
Scattered Clouds
48 °F
Feels Like 48 °F
N
14
Wind Variable Wind from NNE

Today
High -- | Low -- °F
--% Chance of Precip.
Yesterday
High -- | Low -- °F
Precip. -- in
Pressure 30.54 in
Visibility 6.2 miles
Clouds Scattered Clouds 4000 ft
Dew Point 25 °F
Humidity 40%
Rainfall 0.00 in
Snow Depth Not available.
8:14 AM 5:36 PM
Waxing Crescent, 31% visible
METAR LTBA 051120Z 03012KT 350V090 9999 SCT040 09/M04 Q1034 NOSIG RMK RWY17L 06013KT RWY05 /////KT RWY23 05015KT
Pressure 30.54 in
Visibility 6.2 miles
Clouds Scattered Clouds 4000 ft
Dew Point 25 °F
Humidity 40%
Rainfall 0.00 in
Snow Depth Not available.
8:14 AM 5:36 PM
Waxing Crescent, 31% visible
METAR LTBA 051120Z 03012KT 350V090 9999 SCT040 09/M04 Q1034 NOSIG RMK RWY17L 06013KT RWY05 /////KT RWY23 05015KT

10-Day Weather Forecast

×

Almanac

Astronomy

Dec. 05, 2016 Rise Set
Actual Time
Civil Twilight
Nautical Twilight
Astronomical Twilight
Moon
Length of Visible Light
Length of Day
Tomorrow will be .
, % of the Moon is Illuminated

Today's Extremes

Country Highs Country Lows

Community

WunderPhotos

Upload Photos

1,955,775 photos uploaded!

WunderBlog® & News

Nearby

Air Quality

  Air Quality AQ Index Pollutant
Not available.

Snow Depth

Station Depth Elevation

Earthquake Activity

City Distance Mag. Time & Date
Minimum magnitude displayed is 2.5.

Coastal Water Temperatures

Place Temperature

Stations

Nearby Weather Stations

Station Location Temp. Windchill Dew Point Humidity Wind Precip. Elev Updated Type